Accueil
METAR-TAF:

METAR-TAF

Aéroports :

Fairford, Angleterre

latitude: 51-41N, longitude: 001-47W, altitude: 87 m

Observation

Le bulletin a été fait il y a 16 minutes, à 03:06 UTC
Vent 3 kt de ouest
Température 12°C
Humidité 100%
Pression 1007 hPa
Visibilité: 6000 m
Ciel couvert à une hauteur de 400 ft
brume

METAR: EGVA 190306Z AUTO 26003KT 6000 BR OVC004 12/12 A2974 RMK AO2 CIG 003 RWY09 SLP075 $

Heure: 04:22 (03:22 UTC)


TAF: absent

Observations et prévisions météorologiques de plus de 4000 aéroports (messages METAR et TAF).

Les stations disponibles sont représentées par des disques jaunes et rouges sur la carte.

Passer la souris dessus pour voir le nom de la station.

Cliquer dessus pour voir les observations et prévisions météorologiques.

Pour changer de carte: cliquez sur les boutons verts avec une croix noire pour zoomer, sur le bouton vert avec un tiret pour effectuer un zoom arrière, ou sur les flèches vertes pour les cartes adjacentes.


METAR-TAF: